Forside
METAR-TAF:

METAR-TAF

Lufthavne :

Midtjyllands Lufthavn

Karup, Danmark

Breddekreds: 56-18N, længdekreds: 009-07E, højde: 52 m

Aktuelle vejr

Denne rapport blev lavet for 37 minutter siden, kl. 22:50 UTC
Vind 7 kt fra sydvest
Temperatur 13°C
Fugtighed 82%
Tryk 1004 hPa
Sigt 10 km eller mere

METAR: EKKA 012250Z AUTO 23007KT 9999 NCD 13/10 Q1004

Tid: 01:27 (23:27 UTC)

Vejrudsigter

Denne rapport blev lavet for 3 timer og 26 minutter siden, kl. 20:01 UTC
Foreløbig gælder fra 01 på 21 UTC til 02 på 21 UTC
Vind 10 kt fra vest
Sigt 10 km eller mere
Spredte skyer i en højde af 3000 ft
Brudte skyer i en højde af 5000 ft
Midlertidig
fra 01 på 21 UTC til 02 på 18 UTC
Spredte skyer i en højde af 2000 ft, Optårnet Cumulus.
let regnbyger
ændring
fra 02 på 09 UTC til 02 på 12 UTC
Vind 12 kt fra vest med vindstød på up til 22 kt
ændring
fra 02 på 18 UTC til 02 på 20 UTC
Vind 10 kt fra vest

TAF: EKKA 012001Z 0121/0221 26010KT 9999 SCT030 BKN050 TEMPO 0121/0218 -SHRA SCT020TCU BECMG 0209/0212 28012G22KT BECMG 0218/0220 28010KT

Vejrobservationer og prognoser fra mere end 4000 lufthavne (METAR og TAF).

De gule og røde prikker repræsenterer de meteorologiske stationer.

Flyt musen over at se navnet på stationen.

Så klik over at se vejr observationer og prognoser.

At skifte det kort: Klik på de grønne knapper med et sort kors for at zoome ind; på den grønne knap med en bindestreg for at zoome ud; eller på de grønne pile for tilstødende kort.


METAR-TAF: